createdAt,value
2019-02-15T00:01:12.169Z,50.10
2019-02-15T00:03:38.003Z,50.32
2019-02-15T00:06:03.833Z,49.36
2019-02-15T00:08:29.685Z,49.40
2019-02-15T00:10:55.726Z,49.91
2019-02-15T00:13:21.488Z,49.73
2019-02-15T00:15:47.341Z,48.93
2019-02-15T00:18:15.161Z,48.37
2019-02-15T00:20:45.929Z,47.79
2019-02-15T00:23:11.763Z,47.17
2019-02-15T00:25:37.598Z,47.43
2019-02-15T00:28:03.473Z,46.61
2019-02-15T00:30:29.396Z,46.42
2019-02-15T00:32:55.243Z,46.09
2019-02-15T00:35:21.071Z,46.26
2019-02-15T00:37:47.011Z,46.31
2019-02-15T00:40:12.837Z,47.08
2019-02-15T00:42:39.059Z,46.97
2019-02-15T00:45:05.589Z,47.28
2019-02-15T00:47:33.342Z,47.97
2019-02-15T00:50:01.084Z,47.97
2019-02-15T00:52:45.431Z,47.79
2019-02-15T00:55:19.033Z,46.87
2019-02-15T00:57:52.948Z,47.70
2019-02-15T01:00:23.440Z,47.44
2019-02-15T01:02:51.197Z,47.07
2019-02-15T01:05:18.939Z,48.08
2019-02-15T01:07:49.473Z,48.22
2019-02-15T01:10:35.357Z,48.59
2019-02-15T01:13:05.964Z,49.46
2019-02-15T01:15:31.792Z,49.35
2019-02-15T01:17:57.743Z,48.92
2019-02-15T01:20:23.563Z,49.49
2019-02-15T01:22:49.433Z,50.02
2019-02-15T01:25:15.655Z,49.92
2019-02-15T01:27:46.114Z,49.87
2019-02-15T01:30:14.001Z,50.31
2019-02-15T01:32:41.737Z,51.21
2019-02-15T01:35:09.594Z,50.16
2019-02-15T01:37:43.501Z,50.19
2019-02-15T01:40:19.961Z,50.73
2019-02-15T01:42:53.675Z,50.33
2019-02-15T01:45:21.815Z,51.33
2019-02-15T01:47:47.624Z,51.13
2019-02-15T01:50:13.472Z,51.38
2019-02-15T01:52:39.289Z,51.79
2019-02-15T01:55:05.228Z,51.32
2019-02-15T01:57:31.061Z,51.30
2019-02-15T01:59:56.912Z,51.66
2019-02-15T02:02:24.633Z,51.17
2019-02-15T02:04:50.456Z,51.17
2019-02-15T02:07:16.306Z,51.82
2019-02-15T02:09:42.141Z,52.29
2019-02-15T02:12:08.024Z,51.90
2019-02-15T02:14:33.877Z,52.38
2019-02-15T02:17:00.125Z,52.40
2019-02-15T02:19:26.160Z,52.41
2019-02-15T02:21:52.018Z,51.96
2019-02-15T02:24:17.834Z,52.67
2019-02-15T02:26:43.677Z,52.10
2019-02-15T02:29:09.485Z,52.07
2019-02-15T02:31:35.337Z,53.46
2019-02-15T02:34:01.160Z,54.20
2019-02-15T02:36:49.155Z,55.22
2019-02-15T02:39:15.183Z,55.99
2019-02-15T02:41:41.031Z,55.51
2019-02-15T02:44:06.898Z,55.18
2019-02-15T02:46:32.750Z,54.51
2019-02-15T02:48:58.596Z,55.50
2019-02-15T02:51:24.416Z,56.64
2019-02-15T02:53:50.253Z,57.00
2019-02-15T02:56:16.064Z,57.00
2019-02-15T02:58:41.909Z,56.63
2019-02-15T03:01:07.725Z,56.06
2019-02-15T03:03:33.673Z,55.76
2019-02-15T03:05:59.517Z,56.47
2019-02-15T03:08:25.412Z,57.69
2019-02-15T03:10:51.263Z,57.56
2019-02-15T03:13:17.097Z,58.59
2019-02-15T03:15:42.922Z,58.84
2019-02-15T03:18:08.753Z,59.68
2019-02-15T03:20:35.136Z,60.02
2019-02-15T03:23:01.022Z,60.86
2019-02-15T03:25:26.842Z,61.68
2019-02-15T03:27:52.683Z,61.77
2019-02-15T03:30:18.500Z,62.46
2019-02-15T03:32:44.339Z,63.02
2019-02-15T03:35:10.181Z,63.49
2019-02-15T03:37:37.915Z,63.51
2019-02-15T03:40:08.469Z,63.28
2019-02-15T03:42:34.295Z,62.82
2019-02-15T03:45:00.667Z,62.38
2019-02-15T03:47:26.905Z,61.33
2019-02-15T03:49:52.848Z,59.97
2019-02-15T03:52:18.658Z,59.80
2019-02-15T03:54:44.495Z,58.78
2019-02-15T03:57:10.321Z,58.29
2019-02-15T03:59:36.569Z,58.88
2019-02-15T04:02:02.514Z,58.17
2019-02-15T04:04:28.353Z,58.17
2019-02-15T04:06:54.164Z,57.75
2019-02-15T04:09:20.003Z,58.25
2019-02-15T04:11:45.861Z,57.64
2019-02-15T04:14:11.798Z,57.87
2019-02-15T04:16:37.613Z,58.43
2019-02-15T04:19:03.422Z,58.68
2019-02-15T04:21:29.279Z,58.52
2019-02-15T04:23:55.116Z,58.18
2019-02-15T04:26:20.971Z,58.35
2019-02-15T04:28:46.796Z,58.73
2019-02-15T04:31:12.641Z,58.63
2019-02-15T04:33:38.456Z,58.27
2019-02-15T04:36:04.312Z,57.71
2019-02-15T04:38:30.128Z,58.16
2019-02-15T04:40:55.972Z,58.02
2019-02-15T04:43:21.788Z,57.79
2019-02-15T04:45:47.643Z,57.33
2019-02-15T04:48:13.462Z,57.29
2019-02-15T04:50:39.285Z,56.93
2019-02-15T04:53:05.142Z,57.42
2019-02-15T04:55:30.964Z,57.51
2019-02-15T04:57:56.808Z,57.54
2019-02-15T05:00:22.723Z,57.10
2019-02-15T05:02:48.574Z,57.15
2019-02-15T05:05:14.394Z,56.89
2019-02-15T05:07:40.232Z,56.92
2019-02-15T05:10:06.164Z,55.97
2019-02-15T05:12:32.024Z,56.08
2019-02-15T05:14:57.845Z,55.62
2019-02-15T05:17:23.719Z,55.74
2019-02-15T05:19:49.580Z,56.35
2019-02-15T05:22:15.442Z,56.72
2019-02-15T05:24:41.259Z,57.53
2019-02-15T05:27:07.123Z,56.45
2019-02-15T05:29:32.937Z,57.19
2019-02-15T05:31:58.800Z,57.46
2019-02-15T05:34:24.701Z,58.24
2019-02-15T05:36:50.524Z,59.38
2019-02-15T05:39:16.356Z,58.79
2019-02-15T05:41:42.169Z,58.26
2019-02-15T05:44:08.016Z,59.74
2019-02-15T05:46:33.881Z,59.43
2019-02-15T05:48:59.725Z,59.28
2019-02-15T05:51:25.538Z,59.42
2019-02-15T05:53:51.432Z,60.10
2019-02-15T05:56:17.255Z,61.12
2019-02-15T05:58:43.115Z,61.96
2019-02-15T06:01:10.443Z,62.39
2019-02-15T06:03:36.298Z,63.98
2019-02-15T06:06:02.124Z,63.98
2019-02-15T06:08:27.980Z,64.60
2019-02-15T06:10:53.819Z,65.03
2019-02-15T06:13:19.670Z,65.42
2019-02-15T06:15:45.498Z,65.76
2019-02-15T06:18:11.342Z,66.02
2019-02-15T06:20:37.185Z,66.10
2019-02-15T06:23:03.011Z,66.13
2019-02-15T06:25:28.866Z,65.64
2019-02-15T06:27:54.695Z,65.54
2019-02-15T06:30:20.659Z,65.95
2019-02-15T06:32:46.499Z,66.44
2019-02-15T06:35:12.344Z,66.93
2019-02-15T06:37:38.263Z,67.49
2019-02-15T06:40:05.037Z,67.54
2019-02-15T06:42:30.848Z,67.50
2019-02-15T06:44:56.818Z,67.63
2019-02-15T06:47:22.672Z,67.41
2019-02-15T06:49:48.544Z,67.44
2019-02-15T06:52:14.356Z,67.74
2019-02-15T06:54:40.216Z,68.48
2019-02-15T06:57:06.129Z,68.29
2019-02-15T06:59:48.881Z,68.52
2019-02-15T07:02:25.547Z,68.24
2019-02-15T07:04:53.307Z,68.07
2019-02-15T07:07:19.164Z,67.87
2019-02-15T07:09:44.974Z,67.70
2019-02-15T07:12:10.867Z,67.70
2019-02-15T07:14:36.680Z,67.50
2019-02-15T07:17:02.637Z,67.46
2019-02-15T07:19:29.846Z,67.32
2019-02-15T07:21:55.685Z,67.34
2019-02-15T07:24:21.504Z,67.29
2019-02-15T07:26:47.355Z,67.46
2019-02-15T07:29:13.179Z,67.48
2019-02-15T07:31:39.028Z,67.63
2019-02-15T07:34:04.841Z,67.38
2019-02-15T07:36:30.714Z,67.55
2019-02-15T07:38:56.528Z,67.63
2019-02-15T07:41:22.372Z,67.60
2019-02-15T07:43:48.240Z,67.54
2019-02-15T07:46:14.132Z,67.15
2019-02-15T07:48:39.978Z,66.14
2019-02-15T07:51:09.603Z,64.79
2019-02-15T07:53:33.657Z,63.92
2019-02-15T07:56:03.188Z,63.27
2019-02-15T07:58:30.633Z,61.74
2019-02-15T08:00:56.459Z,60.50
2019-02-15T08:03:22.304Z,59.54
2019-02-15T08:05:48.124Z,57.57
2019-02-15T08:08:13.977Z,56.54
2019-02-15T08:10:39.791Z,55.60
2019-02-15T08:13:05.721Z,54.95
2019-02-15T08:15:36.207Z,54.77
2019-02-15T08:17:59.392Z,53.98
2019-02-15T08:20:25.249Z,53.60
2019-02-15T08:22:51.108Z,52.20
2019-02-15T08:25:16.985Z,51.73
2019-02-15T08:27:42.797Z,51.14
2019-02-15T08:30:10.238Z,50.90
2019-02-15T08:32:36.156Z,49.82
2019-02-15T08:35:03.298Z,49.55
2019-02-15T08:37:29.121Z,49.13
2019-02-15T08:39:54.965Z,48.62
2019-02-15T08:42:21.055Z,47.62
2019-02-15T08:44:46.912Z,46.92
2019-02-15T08:47:12.748Z,47.13
2019-02-15T08:49:38.616Z,47.31
2019-02-15T08:52:04.448Z,46.72
2019-02-15T08:54:30.714Z,46.11
2019-02-15T08:56:56.534Z,46.68
2019-02-15T08:59:22.370Z,45.83
2019-02-15T09:01:50.088Z,45.41
2019-02-15T09:04:15.905Z,44.87
2019-02-15T09:06:41.765Z,44.61
2019-02-15T09:09:07.579Z,43.91
2019-02-15T09:11:33.541Z,44.36
2019-02-15T09:13:59.377Z,43.07
2019-02-15T09:16:25.202Z,42.50
2019-02-15T09:18:51.014Z,42.28
2019-02-15T09:21:16.867Z,42.34
2019-02-15T09:23:42.677Z,41.74
2019-02-15T09:26:08.537Z,41.10
2019-02-15T09:28:42.073Z,41.10
2019-02-15T09:31:07.943Z,40.81
2019-02-15T09:33:33.846Z,40.04
2019-02-15T09:35:59.728Z,40.52
2019-02-15T09:38:25.548Z,39.89
2019-02-15T09:40:51.548Z,39.29
2019-02-15T09:43:17.350Z,39.22
2019-02-15T09:45:43.290Z,39.09
2019-02-15T09:48:09.145Z,38.84
2019-02-15T09:50:34.967Z,38.09
2019-02-15T09:53:00.920Z,37.91
2019-02-15T09:55:26.740Z,37.91
2019-02-15T09:57:52.640Z,37.37
2019-02-15T10:00:18.548Z,36.73
2019-02-15T10:02:44.422Z,36.04
2019-02-15T10:05:10.347Z,35.83
2019-02-15T10:07:36.196Z,34.70
2019-02-15T10:10:02.442Z,33.82
2019-02-15T10:12:28.320Z,33.88
2019-02-15T10:14:54.240Z,32.11
2019-02-15T10:17:20.107Z,31.14
2019-02-15T10:19:45.953Z,30.97
2019-02-15T10:22:11.818Z,29.11
2019-02-15T10:24:37.791Z,27.63
2019-02-15T10:27:03.709Z,25.93
2019-02-15T10:29:29.593Z,24.69
2019-02-15T10:31:55.549Z,24.33
2019-02-15T10:34:21.399Z,23.14
2019-02-15T10:36:47.656Z,21.28
2019-02-15T10:39:13.516Z,21.28
2019-02-15T10:41:39.358Z,19.24
2019-02-15T10:44:05.216Z,19.03
2019-02-15T10:46:37.705Z,20.79
2019-02-15T10:48:58.809Z,19.95
2019-02-15T10:51:24.681Z,20.21
2019-02-15T10:53:50.517Z,19.73
2019-02-15T10:56:16.461Z,17.96
2019-02-15T10:58:42.279Z,17.28
2019-02-15T11:01:08.159Z,16.25
2019-02-15T11:03:33.994Z,15.96
2019-02-15T11:05:59.936Z,17.22
2019-02-15T11:08:25.771Z,15.79
2019-02-15T11:10:51.661Z,15.77
2019-02-15T11:13:17.609Z,15.34
2019-02-15T11:15:43.468Z,14.34
2019-02-15T11:18:09.327Z,14.15
2019-02-15T11:20:35.223Z,14.13
2019-02-15T11:23:01.157Z,14.19
2019-02-15T11:25:27.346Z,14.47
2019-02-15T11:27:53.192Z,14.31
2019-02-15T11:30:19.542Z,12.33
2019-02-15T11:32:45.381Z,11.20
2019-02-15T11:35:12.318Z,13.58
2019-02-15T11:37:38.369Z,15.15
2019-02-15T11:40:08.013Z,16.26
2019-02-15T11:42:33.874Z,14.29
2019-02-15T11:44:59.719Z,12.97
2019-02-15T11:47:25.587Z,11.63
2019-02-15T11:49:51.426Z,10.63
2019-02-15T11:52:17.284Z,12.04
2019-02-15T11:54:43.100Z,12.26
2019-02-15T11:57:08.976Z,12.37
2019-02-15T11:59:34.825Z,11.23
2019-02-15T12:02:06.080Z,11.54
2019-02-15T12:04:28.501Z,11.00
2019-02-15T12:06:54.343Z,10.29
2019-02-15T12:09:20.278Z,9.56
2019-02-15T12:11:46.543Z,9.19
2019-02-15T12:14:12.380Z,9.90
2019-02-15T12:16:38.721Z,9.13
2019-02-15T12:19:04.713Z,8.37
2019-02-15T12:21:30.677Z,7.81
2019-02-15T12:23:56.570Z,7.52
2019-02-15T12:26:22.477Z,7.18
2019-02-15T12:28:48.311Z,7.73
2019-02-15T12:31:14.130Z,7.96
2019-02-15T12:33:40.118Z,9.59
2019-02-15T12:36:05.945Z,8.60
2019-02-15T12:38:31.829Z,10.14
2019-02-15T12:40:57.678Z,10.50
2019-02-15T12:43:23.511Z,8.58
2019-02-15T12:45:49.344Z,7.74
2019-02-15T12:48:15.504Z,8.40
2019-02-15T12:50:41.332Z,7.93
2019-02-15T12:53:07.191Z,7.92
2019-02-15T12:55:33.062Z,7.68
2019-02-15T12:57:58.910Z,7.27
2019-02-15T13:00:24.755Z,5.75
2019-02-15T13:02:50.600Z,6.59
2019-02-15T13:05:16.527Z,6.80
2019-02-15T13:07:42.455Z,8.25
2019-02-15T13:10:12.022Z,6.79
2019-02-15T13:12:37.873Z,7.07
2019-02-15T13:15:06.757Z,6.34
2019-02-15T13:17:32.556Z,6.05
2019-02-15T13:19:58.412Z,6.49
2019-02-15T13:22:24.229Z,5.45
2019-02-15T13:24:50.145Z,5.56
2019-02-15T13:27:16.092Z,6.57
2019-02-15T13:29:41.982Z,6.78
2019-02-15T13:32:13.203Z,6.46
2019-02-15T13:34:39.159Z,5.99
2019-02-15T13:37:04.986Z,8.16
2019-02-15T13:39:30.884Z,7.92
2019-02-15T13:41:57.042Z,7.75
2019-02-15T13:44:22.884Z,7.11
2019-02-15T13:46:48.755Z,5.68
2019-02-15T13:49:14.578Z,6.10
2019-02-15T13:51:40.452Z,6.87
2019-02-15T13:54:06.281Z,6.62
2019-02-15T13:56:32.143Z,4.86
2019-02-15T13:58:57.986Z,4.78
2019-02-15T14:01:24.151Z,4.97
2019-02-15T14:03:49.976Z,6.58
2019-02-15T14:06:15.956Z,6.79
2019-02-15T14:08:41.785Z,6.02
2019-02-15T14:11:07.703Z,6.89
2019-02-15T14:13:33.539Z,8.03
2019-02-15T14:15:59.400Z,7.09
2019-02-15T14:18:25.312Z,7.16
2019-02-15T14:20:51.142Z,6.20
2019-02-15T14:23:17.007Z,6.26
2019-02-15T14:25:42.884Z,4.31
2019-02-15T14:28:08.831Z,5.47
2019-02-15T14:30:35.079Z,5.97
2019-02-15T14:33:00.968Z,5.60
2019-02-15T14:35:26.848Z,5.67
2019-02-15T14:37:52.733Z,4.74
2019-02-15T14:40:19.080Z,3.99
2019-02-15T14:42:44.939Z,4.21
2019-02-15T14:45:12.062Z,5.07
2019-02-15T14:47:38.135Z,4.41
2019-02-15T14:50:06.702Z,4.03
2019-02-15T14:52:32.548Z,3.95
2019-02-15T14:54:58.452Z,5.94
2019-02-15T14:57:24.279Z,4.68
2019-02-15T14:59:50.567Z,4.71
2019-02-15T15:02:16.427Z,4.80
2019-02-15T15:04:42.338Z,4.42
2019-02-15T15:07:08.263Z,3.83
2019-02-15T15:09:34.124Z,4.57
2019-02-15T15:11:59.976Z,5.09
2019-02-15T15:14:26.321Z,4.70
2019-02-15T15:16:52.254Z,4.46
2019-02-15T15:19:18.121Z,5.35
2019-02-15T15:21:43.939Z,5.92
2019-02-15T15:24:09.777Z,6.18
2019-02-15T15:26:35.605Z,9.57
2019-02-15T15:29:01.599Z,12.25
2019-02-15T15:31:27.445Z,15.26
2019-02-15T15:33:53.320Z,18.94
2019-02-15T15:36:19.245Z,19.33
2019-02-15T15:38:45.095Z,20.64
2019-02-15T15:41:11.076Z,20.84
2019-02-15T15:43:37.011Z,21.77
2019-02-15T15:46:02.871Z,22.34
2019-02-15T15:48:28.703Z,22.84
2019-02-15T15:50:54.571Z,23.16
2019-02-15T15:53:20.472Z,23.79
2019-02-15T15:55:46.631Z,23.59
2019-02-15T15:58:12.481Z,24.63
2019-02-15T16:00:39.445Z,24.88
2019-02-15T16:03:05.496Z,25.52
2019-02-15T16:05:31.356Z,26.17
2019-02-15T16:07:57.188Z,26.30
2019-02-15T16:10:23.098Z,26.72
2019-02-15T16:12:49.130Z,27.46
2019-02-15T16:15:15.708Z,27.40
2019-02-15T16:17:41.562Z,27.36
2019-02-15T16:20:10.291Z,28.29
2019-02-15T16:22:36.183Z,28.78
2019-02-15T16:25:03.215Z,28.73
2019-02-15T16:27:29.200Z,29.62
2019-02-15T16:29:55.008Z,29.39
2019-02-15T16:32:20.969Z,29.68
2019-02-15T16:34:46.811Z,30.10
2019-02-15T16:37:12.704Z,30.44
2019-02-15T16:39:38.535Z,31.24
2019-02-15T16:42:04.384Z,31.36
2019-02-15T16:44:30.219Z,31.58
2019-02-15T16:46:56.103Z,31.96
2019-02-15T16:49:21.917Z,32.16
2019-02-15T16:51:47.782Z,32.03
2019-02-15T16:54:13.597Z,32.54
2019-02-15T16:56:39.471Z,33.08
2019-02-15T16:59:05.529Z,33.05
2019-02-15T17:01:31.470Z,33.35
2019-02-15T17:03:57.462Z,33.25
2019-02-15T17:06:23.465Z,33.60
2019-02-15T17:08:49.683Z,33.91
2019-02-15T17:11:15.525Z,34.06
2019-02-15T17:13:41.539Z,34.88
2019-02-15T17:16:07.372Z,34.78
2019-02-15T17:18:33.350Z,35.43
2019-02-15T17:20:59.190Z,35.43
2019-02-15T17:23:25.039Z,34.87
2019-02-15T17:25:50.889Z,35.18
2019-02-15T17:28:17.049Z,35.23
2019-02-15T17:30:43.009Z,35.51
2019-02-15T17:33:08.855Z,35.15
2019-02-15T17:35:34.798Z,35.81
2019-02-15T17:38:00.642Z,35.67
2019-02-15T17:40:26.600Z,35.66
2019-02-15T17:42:52.542Z,35.75
2019-02-15T17:45:18.394Z,36.25
2019-02-15T17:47:44.252Z,36.26
2019-02-15T17:50:11.109Z,36.77
2019-02-15T17:52:37.061Z,36.40
2019-02-15T17:55:04.796Z,36.16
2019-02-15T17:57:30.646Z,36.37
2019-02-15T17:59:56.544Z,36.90
2019-02-15T18:02:22.644Z,36.93
2019-02-15T18:04:48.507Z,36.69
2019-02-15T18:07:14.432Z,37.29
2019-02-15T18:09:40.382Z,37.64
2019-02-15T18:12:06.284Z,37.52
2019-02-15T18:14:32.145Z,37.53
2019-02-15T18:16:59.126Z,37.60
2019-02-15T18:19:25.417Z,38.00
2019-02-15T18:21:51.521Z,37.80
2019-02-15T18:24:17.389Z,37.65
2019-02-15T18:26:43.250Z,37.91
2019-02-15T18:29:09.265Z,38.03
2019-02-15T18:31:35.277Z,37.87
2019-02-15T18:34:01.114Z,38.45
2019-02-15T18:36:27.139Z,38.16
2019-02-15T18:38:52.975Z,38.07
2019-02-15T18:41:18.954Z,38.64
2019-02-15T18:43:44.822Z,38.42
2019-02-15T18:46:10.820Z,38.58
2019-02-15T18:48:36.782Z,38.70
2019-02-15T18:51:03.083Z,38.89
2019-02-15T18:53:29.010Z,39.39
2019-02-15T18:55:54.895Z,39.76
2019-02-15T18:58:20.811Z,39.86
2019-02-15T19:00:46.703Z,39.93
2019-02-15T19:03:12.681Z,39.94
2019-02-15T19:05:38.624Z,39.67
2019-02-15T19:08:04.507Z,39.91
2019-02-15T19:10:30.361Z,39.59
2019-02-15T19:12:56.280Z,40.01
2019-02-15T19:15:22.247Z,40.06
2019-02-15T19:17:48.162Z,40.45
2019-02-15T19:20:15.114Z,40.93
2019-02-15T19:22:41.123Z,40.78
2019-02-15T19:25:09.854Z,40.40
2019-02-15T19:27:39.203Z,40.92
